Terminal Aerodrome Forecast
Issued by NWS

Home | Current Version | Previous Version | Text Only | Print | Product List | Glossary On
Versions: 1 2 3 4 5 6 7 8 9 10 11 12 13 14 15
000
FTUS44 KLIX 301700
TAFMCB
TAF
KMCB 301734Z 3018/0118 08007KT P6SM FEW035 SCT050
     FM010000 09002KT P6SM SCT025
     FM010900 00000KT 4SM BR BKN004
      TEMPO 0109/0112 2SM BR
     FM011500 17003KT 5SM BR SCT005 BKN015=

USA.gov is the U.S. government's official web portal to all federal, state and local government web resources and services.